createdAt,value
2019-03-19T03:01:17.557Z,89.69
2019-03-19T03:03:48.961Z,89.52
2019-03-19T03:06:20.226Z,89.50
2019-03-19T03:08:51.534Z,89.64
2019-03-19T03:11:22.685Z,89.99
2019-03-19T03:13:54.024Z,89.99
2019-03-19T03:16:25.228Z,90.22
2019-03-19T03:18:56.577Z,90.25
2019-03-19T03:21:27.890Z,90.22
2019-03-19T03:23:59.068Z,90.50
2019-03-19T03:26:30.385Z,90.72
2019-03-19T03:29:01.638Z,90.94
2019-03-19T03:31:32.965Z,90.85
2019-03-19T03:34:04.167Z,90.84
2019-03-19T03:36:35.422Z,90.76
2019-03-19T03:39:07.903Z,90.91
2019-03-19T03:41:39.270Z,90.81
2019-03-19T03:44:10.582Z,90.83
2019-03-19T03:46:41.833Z,90.67
2019-03-19T03:49:12.977Z,90.74
2019-03-19T03:51:44.257Z,90.71
2019-03-19T03:54:15.526Z,90.76
2019-03-19T03:57:00.969Z,90.66
2019-03-19T03:59:19.687Z,90.50
2019-03-19T04:01:51.004Z,90.52
2019-03-19T04:04:22.238Z,90.44
2019-03-19T04:06:53.516Z,90.63
2019-03-19T04:09:24.828Z,90.74
2019-03-19T04:11:56.005Z,90.55
2019-03-19T04:14:27.256Z,90.64
2019-03-19T04:16:59.561Z,90.64
2019-03-19T04:19:30.952Z,90.58
2019-03-19T04:22:02.310Z,90.68
2019-03-19T04:24:33.665Z,90.64
2019-03-19T04:27:15.313Z,90.79
2019-03-19T04:29:37.766Z,90.81
2019-03-19T04:32:08.908Z,90.83
2019-03-19T04:34:40.108Z,90.83
2019-03-19T04:37:11.308Z,90.70
2019-03-19T04:39:42.654Z,90.73
2019-03-19T04:42:14.025Z,90.62
2019-03-19T04:44:45.433Z,90.71
2019-03-19T04:47:16.720Z,90.59
2019-03-19T04:49:48.132Z,90.71
2019-03-19T04:52:19.277Z,90.58
2019-03-19T04:54:50.438Z,90.55
2019-03-19T04:57:26.621Z,90.71
2019-03-19T04:59:54.579Z,90.34
2019-03-19T05:02:25.893Z,90.23
2019-03-19T05:04:57.194Z,90.29
2019-03-19T05:07:29.517Z,90.50
2019-03-19T05:10:00.727Z,90.44
2019-03-19T05:12:32.672Z,90.58
2019-03-19T05:15:04.742Z,91.22
2019-03-19T05:17:36.054Z,91.49
2019-03-19T05:20:14.428Z,91.72
2019-03-19T05:22:45.677Z,92.17
2019-03-19T05:25:16.985Z,91.97
2019-03-19T05:27:48.276Z,91.65
2019-03-19T05:30:20.672Z,91.73
2019-03-19T05:32:52.134Z,91.60
2019-03-19T05:35:23.333Z,91.38
2019-03-19T05:37:54.661Z,90.88
2019-03-19T05:40:25.903Z,90.74
2019-03-19T05:42:58.728Z,90.45
2019-03-19T05:45:30.093Z,90.16
2019-03-19T05:48:01.380Z,89.78
2019-03-19T05:50:32.624Z,89.20
2019-03-19T05:53:03.888Z,88.21
2019-03-19T05:55:35.185Z,87.83
2019-03-19T05:58:06.445Z,87.24
2019-03-19T06:00:38.846Z,86.35
2019-03-19T06:03:11.384Z,86.25
2019-03-19T06:05:42.662Z,86.69
2019-03-19T06:08:13.842Z,87.15
2019-03-19T06:10:47.842Z,87.88
2019-03-19T06:13:20.118Z,88.13
2019-03-19T06:15:51.396Z,88.35
2019-03-19T06:18:22.707Z,88.53
2019-03-19T06:20:53.939Z,88.50
2019-03-19T06:23:38.510Z,88.81
2019-03-19T06:26:12.128Z,88.67
2019-03-19T06:28:43.349Z,87.78
2019-03-19T06:31:14.547Z,88.21
2019-03-19T06:33:48.292Z,87.96
2019-03-19T06:36:19.687Z,87.90
2019-03-19T06:38:50.945Z,87.61
2019-03-19T06:41:22.217Z,86.86
2019-03-19T06:43:53.385Z,85.92
2019-03-19T06:46:26.186Z,85.61
2019-03-19T06:48:58.441Z,84.73
2019-03-19T06:51:29.634Z,84.01
2019-03-19T06:54:00.901Z,80.70
2019-03-19T06:56:32.189Z,77.96
2019-03-19T06:59:03.524Z,76.60
2019-03-19T07:01:34.808Z,76.47
2019-03-19T07:04:06.119Z,74.84
2019-03-19T07:06:37.431Z,73.93
2019-03-19T07:09:09.097Z,73.42
2019-03-19T07:11:40.265Z,72.26
2019-03-19T07:14:11.559Z,71.80
2019-03-19T07:16:42.791Z,71.56
2019-03-19T07:19:15.017Z,72.18
2019-03-19T07:21:46.415Z,70.31
2019-03-19T07:24:17.614Z,70.95
2019-03-19T07:26:48.853Z,69.35
2019-03-19T07:29:20.054Z,69.05
2019-03-19T07:31:51.463Z,68.27
2019-03-19T07:34:22.691Z,66.49
2019-03-19T07:36:54.079Z,65.65
2019-03-19T07:39:25.367Z,66.01
2019-03-19T07:41:56.694Z,66.47
2019-03-19T07:44:28.684Z,66.52
2019-03-19T07:47:00.163Z,65.14
2019-03-19T07:49:31.569Z,65.41
2019-03-19T07:52:03.650Z,64.59
2019-03-19T07:54:37.139Z,64.21
2019-03-19T07:57:08.419Z,62.65
2019-03-19T07:59:40.883Z,61.58
2019-03-19T08:02:12.279Z,62.56
2019-03-19T08:04:43.425Z,61.82
2019-03-19T08:07:14.732Z,62.55
2019-03-19T08:09:47.293Z,60.48
2019-03-19T08:12:18.613Z,60.21
2019-03-19T08:14:49.876Z,59.64
2019-03-19T08:17:21.225Z,59.59
2019-03-19T08:19:53.178Z,58.60
2019-03-19T08:22:27.539Z,55.47
2019-03-19T08:24:58.693Z,53.79
2019-03-19T08:27:29.957Z,52.44
2019-03-19T08:30:01.242Z,48.61
2019-03-19T08:32:33.506Z,48.61
2019-03-19T08:35:06.077Z,46.91
2019-03-19T08:37:37.362Z,45.63
2019-03-19T08:40:13.674Z,44.07
2019-03-19T08:42:44.950Z,43.50
2019-03-19T08:45:22.437Z,41.25
2019-03-19T08:47:53.782Z,40.63
2019-03-19T08:50:25.062Z,40.11
2019-03-19T08:52:56.441Z,39.81
2019-03-19T08:55:27.697Z,38.73
2019-03-19T08:57:59.165Z,37.62
2019-03-19T09:00:30.520Z,36.74
2019-03-19T09:03:01.862Z,37.43
2019-03-19T09:05:33.076Z,36.10
2019-03-19T09:08:05.650Z,35.96
2019-03-19T09:10:36.804Z,35.00
2019-03-19T09:13:09.423Z,33.88
2019-03-19T09:15:42.479Z,33.54
2019-03-19T09:18:16.148Z,34.22
2019-03-19T09:20:47.558Z,32.86
2019-03-19T09:23:18.802Z,31.77
2019-03-19T09:25:50.024Z,32.95
2019-03-19T09:28:21.318Z,31.44
2019-03-19T09:30:54.202Z,30.88
2019-03-19T09:33:25.575Z,30.88
2019-03-19T09:35:56.818Z,29.69
2019-03-19T09:38:28.170Z,29.94
2019-03-19T09:40:59.548Z,28.62
2019-03-19T09:43:33.197Z,26.89
2019-03-19T09:46:04.533Z,28.33
2019-03-19T09:48:36.254Z,29.38
2019-03-19T09:51:07.319Z,28.55
2019-03-19T09:53:40.190Z,27.48
2019-03-19T09:56:11.497Z,26.72
2019-03-19T09:58:42.809Z,27.01
2019-03-19T10:01:14.012Z,26.45
2019-03-19T10:03:45.300Z,26.66
2019-03-19T10:06:16.477Z,28.20
2019-03-19T10:08:48.388Z,24.51
2019-03-19T10:11:19.510Z,25.49
2019-03-19T10:13:50.647Z,26.11
2019-03-19T10:16:21.887Z,25.23
2019-03-19T10:18:53.384Z,26.70
2019-03-19T10:21:24.596Z,25.23
2019-03-19T10:23:55.901Z,24.26
2019-03-19T10:26:27.109Z,24.53
2019-03-19T10:28:58.456Z,24.58
2019-03-19T10:31:29.599Z,24.50
2019-03-19T10:34:01.275Z,23.89
2019-03-19T10:36:33.535Z,23.86
2019-03-19T10:39:09.045Z,22.72
2019-03-19T10:41:40.084Z,23.05
2019-03-19T10:44:11.292Z,23.50
2019-03-19T10:46:44.219Z,23.22
2019-03-19T10:49:15.523Z,23.59
2019-03-19T10:51:48.075Z,23.48
2019-03-19T10:54:19.338Z,22.57
2019-03-19T10:56:50.663Z,22.97
2019-03-19T10:59:21.952Z,23.55
2019-03-19T11:01:53.304Z,23.94
2019-03-19T11:04:24.610Z,23.32
2019-03-19T11:06:55.882Z,22.50
2019-03-19T11:09:27.228Z,22.74
2019-03-19T11:11:58.443Z,21.72
2019-03-19T11:14:29.587Z,23.85
2019-03-19T11:17:00.693Z,21.00
2019-03-19T11:19:31.816Z,20.48
2019-03-19T11:22:03.136Z,22.94
2019-03-19T11:24:34.703Z,21.90
2019-03-19T11:27:07.099Z,21.88
2019-03-19T11:29:38.383Z,21.74
2019-03-19T11:32:09.792Z,21.51
2019-03-19T11:34:41.109Z,21.22
2019-03-19T11:37:13.509Z,20.45
2019-03-19T11:39:46.368Z,23.12
2019-03-19T11:42:18.322Z,20.58
2019-03-19T11:44:50.517Z,21.94
2019-03-19T11:47:21.682Z,22.51
2019-03-19T11:49:52.902Z,19.59
2019-03-19T11:52:24.244Z,19.85
2019-03-19T11:54:55.456Z,19.34
2019-03-19T11:57:27.635Z,19.64
2019-03-19T11:59:58.854Z,19.91
2019-03-19T12:02:30.094Z,19.11
2019-03-19T12:05:02.022Z,20.16
2019-03-19T12:07:33.144Z,20.20
2019-03-19T12:10:06.852Z,20.19
2019-03-19T12:12:38.143Z,19.30
2019-03-19T12:15:13.371Z,18.89
2019-03-19T12:17:44.831Z,19.88
2019-03-19T12:20:16.133Z,18.70
2019-03-19T12:22:47.593Z,19.02
2019-03-19T12:25:19.982Z,19.56
2019-03-19T12:27:52.085Z,20.03
2019-03-19T12:30:26.238Z,20.25
2019-03-19T12:32:57.225Z,20.26
2019-03-19T12:35:30.653Z,19.25
2019-03-19T12:38:01.454Z,18.77
2019-03-19T12:40:37.359Z,20.09
2019-03-19T12:43:06.914Z,20.44
2019-03-19T12:45:38.178Z,20.77
2019-03-19T12:48:09.948Z,21.04
2019-03-19T12:50:41.132Z,20.57
2019-03-19T12:53:12.352Z,20.95
2019-03-19T12:55:43.785Z,20.76
2019-03-19T12:58:15.053Z,18.68
2019-03-19T13:00:46.328Z,19.08
2019-03-19T13:03:17.620Z,20.06
2019-03-19T13:05:48.997Z,19.80
2019-03-19T13:08:20.549Z,20.11
2019-03-19T13:10:52.051Z,20.65
2019-03-19T13:13:23.319Z,20.53
2019-03-19T13:15:54.777Z,20.03
2019-03-19T13:18:26.073Z,21.04
2019-03-19T13:20:57.488Z,20.11
2019-03-19T13:23:31.899Z,20.33
2019-03-19T13:26:03.248Z,20.73
2019-03-19T13:28:34.659Z,22.09
2019-03-19T13:31:05.989Z,21.49
2019-03-19T13:33:37.267Z,21.76
2019-03-19T13:36:08.699Z,21.50
2019-03-19T13:38:40.067Z,21.89
2019-03-19T13:41:11.373Z,21.25
2019-03-19T13:43:42.604Z,22.25
2019-03-19T13:46:13.888Z,22.66
2019-03-19T13:48:45.176Z,22.88
2019-03-19T13:51:16.487Z,23.47
2019-03-19T13:53:47.961Z,22.43
2019-03-19T13:56:19.287Z,22.89
2019-03-19T13:58:50.575Z,23.97
2019-03-19T14:01:21.892Z,24.77
2019-03-19T14:03:53.281Z,24.81
2019-03-19T14:06:24.594Z,25.41
2019-03-19T14:08:55.970Z,25.05
2019-03-19T14:11:27.107Z,25.23
2019-03-19T14:13:58.449Z,25.52
2019-03-19T14:16:29.831Z,25.80
2019-03-19T14:19:01.055Z,26.36
2019-03-19T14:21:33.046Z,27.08
2019-03-19T14:24:04.312Z,27.74
2019-03-19T14:26:35.604Z,28.30
2019-03-19T14:29:06.957Z,27.66
2019-03-19T14:31:38.223Z,28.10
2019-03-19T14:34:09.600Z,28.18
2019-03-19T14:36:41.830Z,28.55
2019-03-19T14:39:13.398Z,28.77
2019-03-19T14:41:45.711Z,29.12
2019-03-19T14:44:17.086Z,29.34
2019-03-19T14:46:48.317Z,29.09
2019-03-19T14:49:19.567Z,29.18
2019-03-19T14:51:51.849Z,29.57
2019-03-19T14:54:23.134Z,30.25
2019-03-19T14:56:54.362Z,30.90
2019-03-19T14:59:25.651Z,31.44
2019-03-19T15:01:56.838Z,31.18
2019-03-19T15:04:28.064Z,33.01
2019-03-19T15:06:59.479Z,32.52
2019-03-19T15:09:30.673Z,33.00
2019-03-19T15:12:01.941Z,33.76
2019-03-19T15:14:33.245Z,34.36
2019-03-19T15:17:05.544Z,36.38
2019-03-19T15:19:36.890Z,36.86
2019-03-19T15:22:08.177Z,38.38
2019-03-19T15:24:39.937Z,39.20
2019-03-19T15:27:11.245Z,39.94
2019-03-19T15:29:42.594Z,40.84
2019-03-19T15:32:13.883Z,41.35
2019-03-19T15:34:45.111Z,41.82
2019-03-19T15:37:16.428Z,42.33
2019-03-19T15:39:47.656Z,42.65
2019-03-19T15:42:19.016Z,43.04
2019-03-19T15:44:50.364Z,43.42
2019-03-19T15:47:21.889Z,43.78
2019-03-19T15:49:53.213Z,44.08
2019-03-19T15:52:24.519Z,43.74
2019-03-19T15:54:55.867Z,43.00
2019-03-19T15:57:27.143Z,42.97
2019-03-19T15:59:58.481Z,42.97
2019-03-19T16:02:29.688Z,43.24
2019-03-19T16:05:01.128Z,43.23
2019-03-19T16:07:32.338Z,43.53
2019-03-19T16:10:04.362Z,43.52
2019-03-19T16:12:35.671Z,43.60
2019-03-19T16:15:15.252Z,43.58
2019-03-19T16:17:46.495Z,43.75
2019-03-19T16:20:19.112Z,44.09
2019-03-19T16:22:50.426Z,44.39
2019-03-19T16:25:22.105Z,44.51
2019-03-19T16:27:53.271Z,44.51
2019-03-19T16:30:24.543Z,45.16
2019-03-19T16:32:55.741Z,45.27
2019-03-19T16:35:27.087Z,46.75
2019-03-19T16:37:58.496Z,47.80
2019-03-19T16:40:29.716Z,48.80
2019-03-19T16:43:01.038Z,49.21
2019-03-19T16:45:32.333Z,49.21
2019-03-19T16:48:03.589Z,50.02
2019-03-19T16:50:34.946Z,50.26
2019-03-19T16:53:07.448Z,50.91
2019-03-19T16:55:38.796Z,50.95
2019-03-19T16:58:10.073Z,50.95
2019-03-19T17:00:41.341Z,51.20
2019-03-19T17:03:12.700Z,51.63
2019-03-19T17:05:44.107Z,51.68
2019-03-19T17:08:15.256Z,52.32
2019-03-19T17:10:46.500Z,52.62
2019-03-19T17:13:17.704Z,52.61
2019-03-19T17:15:49.051Z,52.86
2019-03-19T17:18:21.292Z,53.72
2019-03-19T17:20:52.917Z,53.81
2019-03-19T17:23:24.125Z,54.00
2019-03-19T17:25:55.466Z,54.09
2019-03-19T17:28:27.663Z,54.64
2019-03-19T17:30:59.072Z,54.52
2019-03-19T17:33:31.871Z,54.57
2019-03-19T17:36:03.793Z,54.54
2019-03-19T17:38:36.699Z,54.97
2019-03-19T17:41:08.160Z,54.95
2019-03-19T17:43:39.414Z,55.12
2019-03-19T17:46:10.724Z,55.26
2019-03-19T17:48:43.683Z,56.13
2019-03-19T17:51:16.178Z,56.26
2019-03-19T17:53:47.456Z,56.13
2019-03-19T17:56:21.025Z,55.84
2019-03-19T17:58:56.288Z,56.25
2019-03-19T18:01:27.572Z,57.02
2019-03-19T18:03:58.844Z,56.81
2019-03-19T18:06:31.700Z,56.56
2019-03-19T18:09:03.185Z,55.88
2019-03-19T18:11:35.086Z,56.51
2019-03-19T18:14:08.033Z,56.77
2019-03-19T18:16:39.444Z,56.85
2019-03-19T18:19:10.737Z,57.17
2019-03-19T18:21:42.039Z,57.72
2019-03-19T18:24:13.271Z,58.11
2019-03-19T18:26:44.661Z,58.31
2019-03-19T18:29:16.078Z,58.94
2019-03-19T18:31:47.711Z,59.35
2019-03-19T18:34:19.224Z,59.04
2019-03-19T18:36:50.834Z,59.00
2019-03-19T18:39:22.187Z,59.33
2019-03-19T18:41:53.509Z,59.89
2019-03-19T18:44:26.659Z,60.52
2019-03-19T18:46:59.790Z,61.43
2019-03-19T18:49:32.991Z,61.88
2019-03-19T18:52:04.322Z,61.34
2019-03-19T18:54:35.617Z,61.21
2019-03-19T18:57:06.919Z,61.50
2019-03-19T18:59:40.869Z,61.33
2019-03-19T19:02:13.107Z,61.40
2019-03-19T19:04:44.468Z,61.65
2019-03-19T19:07:15.839Z,61.62
2019-03-19T19:09:47.161Z,61.93
2019-03-19T19:12:18.278Z,62.82
2019-03-19T19:14:49.562Z,63.50
2019-03-19T19:17:22.193Z,64.15
2019-03-19T19:19:55.910Z,63.46
2019-03-19T19:22:27.215Z,62.92
2019-03-19T19:24:59.895Z,62.60
2019-03-19T19:27:31.313Z,62.86
2019-03-19T19:30:04.314Z,63.39
2019-03-19T19:32:35.602Z,63.57
2019-03-19T19:35:07.670Z,64.66
2019-03-19T19:37:39.074Z,64.98
2019-03-19T19:40:18.696Z,65.41
2019-03-19T19:42:49.968Z,65.48
2019-03-19T19:45:21.390Z,65.28
2019-03-19T19:47:52.622Z,64.85
2019-03-19T19:50:24.242Z,65.76
2019-03-19T19:52:55.817Z,67.81
2019-03-19T19:55:27.108Z,68.30
2019-03-19T19:57:59.910Z,68.59
2019-03-19T20:00:32.688Z,68.15
2019-03-19T20:03:11.731Z,67.70
2019-03-19T20:05:36.970Z,67.06
2019-03-19T20:08:08.294Z,67.77
2019-03-19T20:10:39.524Z,68.27
2019-03-19T20:13:10.761Z,69.10
2019-03-19T20:15:42.132Z,69.59
2019-03-19T20:18:16.440Z,69.86
2019-03-19T20:20:47.738Z,69.50
2019-03-19T20:23:19.284Z,70.33
2019-03-19T20:25:50.611Z,70.73
2019-03-19T20:28:22.922Z,70.29
2019-03-19T20:30:54.995Z,69.16
2019-03-19T20:33:26.303Z,68.96
2019-03-19T20:35:57.649Z,69.11
2019-03-19T20:38:28.963Z,68.96
2019-03-19T20:41:00.381Z,68.69
2019-03-19T20:43:31.931Z,67.68
2019-03-19T20:46:03.356Z,67.41
2019-03-19T20:48:36.274Z,67.11
2019-03-19T20:51:08.427Z,66.89
2019-03-19T20:53:41.364Z,67.39
2019-03-19T20:56:12.697Z,67.21
2019-03-19T20:58:44.407Z,66.83
2019-03-19T21:01:15.776Z,66.40
2019-03-19T21:03:47.395Z,66.27
2019-03-19T21:06:19.533Z,65.82
2019-03-19T21:08:51.051Z,66.03
2019-03-19T21:11:23.062Z,65.90
2019-03-19T21:13:54.259Z,65.70
2019-03-19T21:16:25.430Z,65.79
2019-03-19T21:18:57.048Z,65.57
2019-03-19T21:21:28.311Z,65.60
2019-03-19T21:23:59.632Z,65.66
2019-03-19T21:26:32.794Z,65.76
2019-03-19T21:29:05.109Z,66.00
2019-03-19T21:31:36.359Z,65.93
2019-03-19T21:34:07.703Z,66.00
2019-03-19T21:36:38.983Z,66.17
2019-03-19T21:39:10.233Z,65.93
2019-03-19T21:41:41.576Z,66.13
2019-03-19T21:44:12.811Z,66.82
2019-03-19T21:46:44.249Z,66.87
2019-03-19T21:49:15.604Z,67.36
2019-03-19T21:51:47.007Z,67.44
2019-03-19T21:54:18.643Z,67.30
2019-03-19T21:56:50.122Z,67.77
2019-03-19T21:59:21.439Z,68.30
2019-03-19T22:01:52.788Z,69.21
2019-03-19T22:04:24.060Z,69.47
2019-03-19T22:06:55.352Z,69.20
2019-03-19T22:09:26.680Z,69.12
2019-03-19T22:11:58.000Z,68.59
2019-03-19T22:14:29.327Z,68.75
2019-03-19T22:17:00.577Z,68.79
2019-03-19T22:19:32.100Z,68.84
2019-03-19T22:22:03.393Z,68.87
2019-03-19T22:24:34.655Z,69.02
2019-03-19T22:27:05.904Z,69.05
2019-03-19T22:29:37.097Z,69.10
2019-03-19T22:32:08.360Z,69.04
2019-03-19T22:34:39.585Z,68.98
2019-03-19T22:37:10.976Z,69.47
2019-03-19T22:39:42.762Z,69.77
2019-03-19T22:42:14.335Z,70.01
2019-03-19T22:44:45.691Z,69.96
2019-03-19T22:47:18.104Z,70.05
2019-03-19T22:49:49.481Z,70.32
2019-03-19T22:52:20.885Z,70.30
2019-03-19T22:54:53.280Z,70.66
2019-03-19T22:57:24.735Z,71.00
2019-03-19T22:59:56.089Z,71.53
2019-03-19T23:02:27.522Z,72.32
2019-03-19T23:04:58.968Z,72.92
2019-03-19T23:07:30.308Z,73.40
2019-03-19T23:10:01.710Z,73.55
2019-03-19T23:12:33.084Z,72.85
2019-03-19T23:15:06.861Z,72.78
2019-03-19T23:17:38.230Z,73.83
2019-03-19T23:20:12.038Z,74.95
2019-03-19T23:22:43.399Z,73.97
2019-03-19T23:25:14.880Z,73.91
2019-03-19T23:27:46.249Z,74.70
2019-03-19T23:30:21.498Z,75.72
2019-03-19T23:32:52.719Z,76.68
2019-03-19T23:35:23.995Z,77.35
2019-03-19T23:37:56.186Z,77.43
2019-03-19T23:40:27.457Z,75.88
2019-03-19T23:42:58.783Z,75.03
2019-03-19T23:45:30.041Z,74.71
2019-03-19T23:48:01.356Z,75.59
2019-03-19T23:50:33.629Z,76.58
2019-03-19T23:53:04.902Z,77.03
2019-03-19T23:55:36.114Z,77.54
2019-03-19T23:58:07.418Z,77.65
